createdAt,value
2022-09-10T00:00:03.291Z,2.20
2022-09-10T00:02:33.890Z,2.40
2022-09-10T00:05:04.530Z,2.17
2022-09-10T00:07:34.356Z,2.53
2022-09-10T00:10:04.441Z,2.95
2022-09-10T00:12:34.164Z,3.40
2022-09-10T00:15:03.922Z,3.30
2022-09-10T00:17:34.799Z,3.35
2022-09-10T00:20:05.932Z,2.80
2022-09-10T00:22:36.079Z,2.35
2022-09-10T00:25:08.339Z,2.92
2022-09-10T00:27:39.342Z,2.67
2022-09-10T00:30:09.723Z,2.65
2022-09-10T00:32:40.124Z,2.33
2022-09-10T00:35:10.138Z,2.00
2022-09-10T00:37:39.887Z,1.73
2022-09-10T00:40:10.863Z,1.52
2022-09-10T00:42:41.981Z,1.80
2022-09-10T00:45:21.841Z,1.60
2022-09-10T00:47:54.242Z,2.60
2022-09-10T00:50:27.693Z,2.00
2022-09-10T00:53:08.831Z,1.70
2022-09-10T00:55:41.889Z,2.10
2022-09-10T00:58:15.909Z,1.67
2022-09-10T01:00:45.641Z,1.90
2022-09-10T01:03:17.805Z,1.77
2022-09-10T01:05:49.442Z,1.65
2022-09-10T01:08:20.512Z,1.60
2022-09-10T01:11:20.959Z,1.67
2022-09-10T01:14:29.704Z,1.90
2022-09-10T01:17:31.691Z,1.83
2022-09-10T01:20:42.109Z,1.92
2022-09-10T01:23:51.192Z,1.70
2022-09-10T01:26:53.692Z,2.17
2022-09-10T01:30:03.085Z,1.73
2022-09-10T01:32:57.662Z,2.03
2022-09-10T01:35:58.902Z,1.65
2022-09-10T01:38:35.882Z,1.67
2022-09-10T01:41:06.414Z,1.75
2022-09-10T01:43:37.256Z,1.63
2022-09-10T01:46:45.981Z,1.60
2022-09-10T01:49:48.444Z,2.00
2022-09-10T01:52:59.371Z,2.10
2022-09-10T01:55:53.419Z,1.90
2022-09-10T01:58:44.053Z,1.95
2022-09-10T02:01:40.262Z,1.88
2022-09-10T02:04:16.214Z,2.10
2022-09-10T02:06:49.973Z,1.90
2022-09-10T02:09:21.719Z,1.88
2022-09-10T02:11:56.540Z,2.03
2022-09-10T02:14:26.753Z,2.10
2022-09-10T02:17:02.033Z,2.22
2022-09-10T02:19:32.753Z,2.08
2022-09-10T02:22:03.117Z,2.08
2022-09-10T02:24:32.839Z,2.17
2022-09-10T02:27:02.629Z,2.10
2022-09-10T02:29:33.264Z,1.98
2022-09-10T02:32:03.430Z,1.80
2022-09-10T02:34:33.662Z,2.10
2022-09-10T02:37:05.280Z,1.80
2022-09-10T02:39:35.011Z,2.00
2022-09-10T02:42:04.808Z,2.20
2022-09-10T02:44:34.586Z,1.55
2022-09-10T02:47:04.318Z,1.90
2022-09-10T02:49:36.074Z,1.77
2022-09-10T02:52:06.490Z,1.83
2022-09-10T02:54:36.482Z,1.73
2022-09-10T02:57:06.809Z,1.73
2022-09-10T02:59:36.978Z,2.00
2022-09-10T03:02:07.262Z,1.88
2022-09-10T03:04:37.338Z,1.77
2022-09-10T03:07:07.601Z,1.60
2022-09-10T03:09:37.731Z,2.10
2022-09-10T03:12:07.992Z,1.55
2022-09-10T03:14:38.429Z,2.03
2022-09-10T03:17:08.712Z,1.98
2022-09-10T03:19:39.050Z,1.58
2022-09-10T03:22:09.894Z,1.67
2022-09-10T03:24:41.738Z,2.03
2022-09-10T03:27:12.220Z,1.58
2022-09-10T03:29:44.000Z,2.30
2022-09-10T03:32:14.111Z,2.47
2022-09-10T03:34:43.854Z,1.88
2022-09-10T03:37:13.485Z,1.75
2022-09-10T03:39:43.394Z,1.95
2022-09-10T03:42:13.982Z,1.92
2022-09-10T03:44:43.732Z,1.85
2022-09-10T03:47:14.019Z,2.17
2022-09-10T03:49:44.310Z,2.03
2022-09-10T03:52:14.674Z,2.78
2022-09-10T03:54:44.432Z,2.53
2022-09-10T03:57:14.374Z,2.40
2022-09-10T03:59:44.139Z,3.08
2022-09-10T04:02:14.121Z,2.58
2022-09-10T04:04:44.690Z,2.15
2022-09-10T04:07:17.574Z,2.08
2022-09-10T04:09:47.302Z,2.75
2022-09-10T04:12:17.069Z,2.22
2022-09-10T04:14:48.368Z,2.22
2022-09-10T04:17:19.789Z,2.10
2022-09-10T04:19:50.579Z,2.30
2022-09-10T04:22:21.291Z,2.40
2022-09-10T04:24:51.882Z,2.28
2022-09-10T04:27:21.991Z,2.50
2022-09-10T04:29:52.142Z,2.17
2022-09-10T04:32:22.682Z,1.73
2022-09-10T04:34:55.532Z,2.30
2022-09-10T04:37:26.314Z,1.92
2022-09-10T04:39:58.805Z,2.30
2022-09-10T04:42:29.965Z,2.30
2022-09-10T04:45:00.912Z,2.03
2022-09-10T04:47:31.102Z,2.45
2022-09-10T04:50:01.201Z,2.00
2022-09-10T04:52:31.309Z,1.85
2022-09-10T04:55:01.554Z,2.15
2022-09-10T04:57:31.721Z,2.30
2022-09-10T05:00:01.923Z,2.40
2022-09-10T05:02:32.049Z,2.22
2022-09-10T05:05:05.184Z,2.10
2022-09-10T05:07:35.352Z,2.40
2022-09-10T05:10:05.442Z,2.13
2022-09-10T05:12:35.573Z,2.30
2022-09-10T05:15:05.851Z,2.50
2022-09-10T05:17:36.499Z,2.15
2022-09-10T05:20:08.902Z,2.70
2022-09-10T05:22:40.739Z,3.03
2022-09-10T05:25:11.959Z,2.70
2022-09-10T05:27:43.479Z,2.67
2022-09-10T05:30:13.509Z,2.90
2022-09-10T05:32:43.479Z,2.85
2022-09-10T05:35:13.573Z,2.92
2022-09-10T05:37:44.425Z,3.40
2022-09-10T05:40:16.953Z,2.80
2022-09-10T05:42:46.653Z,3.08
2022-09-10T05:45:16.493Z,3.03
2022-09-10T05:47:48.490Z,3.30
2022-09-10T05:50:19.670Z,3.42
2022-09-10T05:52:49.643Z,3.03
2022-09-10T05:55:20.849Z,2.80
2022-09-10T05:57:50.794Z,2.83
2022-09-10T06:00:20.651Z,3.45
2022-09-10T06:02:50.719Z,2.50
2022-09-10T06:05:23.120Z,3.00
2022-09-10T06:07:53.259Z,2.67
2022-09-10T06:10:22.999Z,2.95
2022-09-10T06:12:56.620Z,3.05
2022-09-10T06:15:26.722Z,2.67
2022-09-10T06:17:58.334Z,2.72
2022-09-10T06:20:28.180Z,2.78
2022-09-10T06:22:58.919Z,2.83
2022-09-10T06:25:29.065Z,2.92
2022-09-10T06:27:58.873Z,2.80
2022-09-10T06:30:28.869Z,2.90
2022-09-10T06:32:59.744Z,2.72
2022-09-10T06:35:31.091Z,2.67
2022-09-10T06:38:00.972Z,3.78
2022-09-10T06:40:31.442Z,3.20
2022-09-10T06:43:04.078Z,3.03
2022-09-10T06:45:34.211Z,2.75
2022-09-10T06:48:37.598Z,2.85
2022-09-10T06:50:55.819Z,2.90
2022-09-10T06:53:26.871Z,2.88
2022-09-10T06:55:57.480Z,2.50
2022-09-10T06:58:27.160Z,2.70
2022-09-10T07:00:57.849Z,2.78
2022-09-10T07:03:27.750Z,2.70
2022-09-10T07:05:57.483Z,2.85
2022-09-10T07:08:27.374Z,3.08
2022-09-10T07:11:05.153Z,3.25
2022-09-10T07:13:36.222Z,3.97
2022-09-10T07:16:06.349Z,3.67
2022-09-10T07:18:36.184Z,3.80
2022-09-10T07:21:12.281Z,3.65
2022-09-10T07:23:45.510Z,3.53
2022-09-10T07:26:17.889Z,3.83
2022-09-10T07:28:49.260Z,3.13
2022-09-10T07:31:23.481Z,3.35
2022-09-10T07:33:55.523Z,3.03
2022-09-10T07:36:25.773Z,3.35
2022-09-10T07:38:57.340Z,3.42
2022-09-10T07:41:31.326Z,3.40
2022-09-10T07:44:01.343Z,3.47
2022-09-10T07:46:31.839Z,3.35
2022-09-10T07:49:03.070Z,3.35
2022-09-10T07:51:34.952Z,3.50
2022-09-10T07:54:05.159Z,2.92
2022-09-10T07:56:36.997Z,3.30
2022-09-10T07:59:06.760Z,3.55
2022-09-10T08:01:37.335Z,3.28
2022-09-10T08:04:09.040Z,2.95
2022-09-10T08:06:38.980Z,2.92
2022-09-10T08:09:09.310Z,2.85
2022-09-10T08:11:42.113Z,3.40
2022-09-10T08:14:11.831Z,3.03
2022-09-10T08:16:44.409Z,2.75
2022-09-10T08:19:16.722Z,3.45
2022-09-10T08:21:47.310Z,3.45
2022-09-10T08:24:18.421Z,2.78
2022-09-10T08:26:48.583Z,3.15
2022-09-10T08:29:21.725Z,3.03
2022-09-10T08:31:51.859Z,2.63
2022-09-10T08:34:23.093Z,2.85
2022-09-10T08:36:53.279Z,2.72
2022-09-10T08:39:23.433Z,2.95
2022-09-10T08:42:03.481Z,2.70
2022-09-10T08:44:53.795Z,2.78
2022-09-10T08:48:02.698Z,2.90
2022-09-10T08:51:09.879Z,1.70
2022-09-10T08:54:01.551Z,2.38
2022-09-10T08:56:33.041Z,1.98
2022-09-10T08:59:30.732Z,1.42
2022-09-10T09:04:55.716Z,1.88
2022-09-10T09:07:26.102Z,1.05
2022-09-10T09:09:56.201Z,1.27
2022-09-10T09:12:55.870Z,1.50
2022-09-10T09:16:08.659Z,1.40
2022-09-10T09:19:15.940Z,1.25
2022-09-10T09:21:58.894Z,0.90
2022-09-10T09:24:59.151Z,1.10
2022-09-10T09:27:36.463Z,1.10
2022-09-10T09:30:16.234Z,0.85
2022-09-10T09:32:50.769Z,0.90
2022-09-10T09:35:59.972Z,0.82
2022-09-10T09:38:50.970Z,0.90
2022-09-10T09:41:59.454Z,0.93
2022-09-10T09:44:56.885Z,1.20
2022-09-10T09:47:27.383Z,0.80
2022-09-10T09:49:58.215Z,1.00
2022-09-10T09:52:32.972Z,0.80
2022-09-10T09:55:16.586Z,0.75
2022-09-10T09:57:46.883Z,0.90
2022-09-10T10:00:38.954Z,1.10
2022-09-10T10:03:29.803Z,1.00
2022-09-10T10:06:14.141Z,0.88
2022-09-10T10:09:21.873Z,1.15
2022-09-10T10:12:07.712Z,1.02
2022-09-10T10:14:46.355Z,1.40
2022-09-10T10:17:38.830Z,1.08
2022-09-10T10:20:12.588Z,1.25
2022-09-10T10:22:45.700Z,1.15
2022-09-10T10:25:39.983Z,2.53
2022-09-10T10:28:29.418Z,1.35
2022-09-10T10:31:05.429Z,1.63
2022-09-10T10:33:37.172Z,1.55
2022-09-10T10:36:28.355Z,1.67
2022-09-10T10:39:14.509Z,1.80
2022-09-10T10:42:24.477Z,1.27
2022-09-10T10:45:28.859Z,1.73
2022-09-10T10:48:17.430Z,1.40
2022-09-10T10:51:28.473Z,1.42
2022-09-10T10:54:13.683Z,1.70
2022-09-10T10:57:02.473Z,1.65
2022-09-10T11:00:02.981Z,1.40
2022-09-10T11:03:12.943Z,1.42
2022-09-10T11:05:51.063Z,1.23
2022-09-10T11:08:43.643Z,1.48
2022-09-10T11:11:29.580Z,2.13
2022-09-10T11:14:38.374Z,2.03
2022-09-10T11:17:48.955Z,2.17
2022-09-10T11:20:34.796Z,2.28
2022-09-10T11:23:46.229Z,1.58
2022-09-10T11:26:40.201Z,1.85
2022-09-10T11:29:48.251Z,1.77
2022-09-10T11:32:44.994Z,1.48
2022-09-10T11:35:35.982Z,1.95
2022-09-10T11:38:39.044Z,1.77
2022-09-10T11:41:24.055Z,1.80
2022-09-10T11:44:26.002Z,2.03
2022-09-10T11:47:20.823Z,1.80
2022-09-10T11:50:29.950Z,1.50
2022-09-10T11:53:03.293Z,1.90
2022-09-10T11:56:12.144Z,1.95
2022-09-10T11:59:01.341Z,1.60
2022-09-10T12:02:05.126Z,1.35
2022-09-10T12:05:07.553Z,1.60
2022-09-10T12:08:09.801Z,1.50
2022-09-10T12:11:07.710Z,1.88
2022-09-10T12:13:41.760Z,2.05
2022-09-10T12:16:38.115Z,1.70
2022-09-10T12:19:21.753Z,1.67
2022-09-10T12:22:06.875Z,1.50
2022-09-10T12:24:39.754Z,1.75
2022-09-10T12:27:21.016Z,1.83
2022-09-10T12:29:54.129Z,1.70
2022-09-10T12:32:32.193Z,2.30
2022-09-10T12:37:52.439Z,1.90
2022-09-10T12:40:53.323Z,2.05
2022-09-10T12:43:59.093Z,2.22
2022-09-10T12:46:30.541Z,1.60
2022-09-10T12:49:13.528Z,1.73
2022-09-10T12:52:01.672Z,1.73
2022-09-10T12:55:09.135Z,2.00
2022-09-10T12:58:07.303Z,1.83
2022-09-10T13:01:03.485Z,1.88
2022-09-10T13:03:33.802Z,1.83
2022-09-10T13:06:08.809Z,1.67
2022-09-10T13:08:55.350Z,1.92
2022-09-10T13:11:30.051Z,2.00
2022-09-10T13:14:06.831Z,1.90
2022-09-10T13:16:43.644Z,2.13
2022-09-10T13:19:50.004Z,2.08
2022-09-10T13:22:55.898Z,1.52
2022-09-10T13:25:50.224Z,1.98
2022-09-10T13:29:02.480Z,2.60
2022-09-10T13:31:35.912Z,1.75
2022-09-10T13:34:44.915Z,1.90
2022-09-10T13:37:53.895Z,1.88
2022-09-10T13:41:04.322Z,1.75
2022-09-10T13:43:58.450Z,1.55
2022-09-10T13:46:41.526Z,1.90
2022-09-10T13:49:50.784Z,1.50
2022-09-10T13:52:26.415Z,1.70
2022-09-10T13:54:58.477Z,2.13
2022-09-10T13:57:50.573Z,2.17
2022-09-10T14:00:36.754Z,1.50
2022-09-10T14:03:18.241Z,1.88
2022-09-10T14:06:11.126Z,2.15
2022-09-10T14:09:02.658Z,1.58
2022-09-10T14:11:35.953Z,1.50
2022-09-10T14:14:16.507Z,1.85
2022-09-10T14:16:57.472Z,1.30
2022-09-10T14:19:37.055Z,1.45
2022-09-10T14:22:09.982Z,1.42
2022-09-10T14:24:56.514Z,1.45
2022-09-10T14:27:39.424Z,1.77
2022-09-10T14:30:34.726Z,1.60
2022-09-10T14:33:35.247Z,1.95
2022-09-10T14:36:33.001Z,1.38
2022-09-10T14:42:10.525Z,1.70
2022-09-10T14:44:44.572Z,1.58
2022-09-10T14:47:24.339Z,2.42
2022-09-10T14:49:54.821Z,1.80
2022-09-10T14:52:25.759Z,1.40
2022-09-10T14:54:55.792Z,2.38
2022-09-10T14:57:26.050Z,1.80
2022-09-10T14:59:57.432Z,2.05
2022-09-10T15:02:31.732Z,1.30
2022-09-10T15:05:01.828Z,1.67
2022-09-10T15:07:35.063Z,1.65
2022-09-10T15:10:08.206Z,1.75
2022-09-10T15:12:40.594Z,1.40
2022-09-10T15:15:17.598Z,1.75
2022-09-10T15:17:48.334Z,1.57
2022-09-10T15:20:19.371Z,1.90
2022-09-10T15:22:49.452Z,1.80
2022-09-10T15:25:45.201Z,1.83
2022-09-10T15:28:15.292Z,1.92
2022-09-10T15:30:46.458Z,1.50
2022-09-10T15:33:19.633Z,2.50
2022-09-10T15:35:49.735Z,2.20
2022-09-10T15:38:23.083Z,1.83
2022-09-10T15:40:55.659Z,1.60
2022-09-10T15:43:28.361Z,1.75
2022-09-10T15:46:03.578Z,1.85
2022-09-10T15:48:35.338Z,1.80
2022-09-10T15:51:12.042Z,2.08
2022-09-10T15:53:43.612Z,1.75
2022-09-10T15:56:14.895Z,1.77
2022-09-10T15:58:50.818Z,1.83
2022-09-10T16:01:21.334Z,1.67
2022-09-10T16:03:55.219Z,1.83
2022-09-10T16:06:29.035Z,1.50
2022-09-10T16:09:03.622Z,1.80
2022-09-10T16:11:36.240Z,2.72
2022-09-10T16:14:08.864Z,1.90
2022-09-10T16:16:39.413Z,1.70
2022-09-10T16:19:10.981Z,2.17
2022-09-10T16:21:42.409Z,2.00
2022-09-10T16:24:12.815Z,1.95
2022-09-10T16:26:45.295Z,2.33
2022-09-10T16:29:17.860Z,1.63
2022-09-10T16:31:48.732Z,1.95
2022-09-10T16:34:21.973Z,2.35
2022-09-10T16:36:53.151Z,1.70
2022-09-10T16:39:23.831Z,1.85
2022-09-10T16:41:54.705Z,2.28
2022-09-10T16:44:25.711Z,1.75
2022-09-10T16:46:56.160Z,1.92
2022-09-10T16:49:26.178Z,2.40
2022-09-10T16:51:56.342Z,1.95
2022-09-10T16:54:28.366Z,1.80
2022-09-10T16:56:58.395Z,1.55
2022-09-10T16:59:29.836Z,1.90
2022-09-10T17:02:04.344Z,2.65
2022-09-10T17:04:37.823Z,2.00
2022-09-10T17:07:08.742Z,1.80
2022-09-10T17:09:38.865Z,2.17
2022-09-10T17:12:11.985Z,1.90
2022-09-10T17:14:42.443Z,1.90
2022-09-10T17:17:12.586Z,1.90
2022-09-10T17:19:42.659Z,1.70
2022-09-10T17:22:12.803Z,2.00
2022-09-10T17:24:43.505Z,1.65
2022-09-10T17:27:13.592Z,1.58
2022-09-10T17:29:43.722Z,1.50
2022-09-10T17:32:15.247Z,1.65
2022-09-10T17:34:44.943Z,1.42
2022-09-10T17:37:14.724Z,1.80
2022-09-10T17:39:44.603Z,1.60
2022-09-10T17:42:14.727Z,1.98
2022-09-10T17:44:48.905Z,1.67
2022-09-10T17:47:18.596Z,1.73
2022-09-10T17:49:48.355Z,2.30
2022-09-10T17:52:18.476Z,2.05
2022-09-10T17:54:48.197Z,1.70
2022-09-10T17:57:18.382Z,2.40
2022-09-10T17:59:48.189Z,1.85
2022-09-10T18:02:19.236Z,2.00
2022-09-10T18:04:52.204Z,2.00
2022-09-10T18:07:21.975Z,1.92
2022-09-10T18:09:51.695Z,2.15
2022-09-10T18:12:21.705Z,2.90
2022-09-10T18:14:51.436Z,1.55
2022-09-10T18:17:22.137Z,1.60
2022-09-10T18:19:52.866Z,2.30
2022-09-10T18:22:22.535Z,1.80
2022-09-10T18:24:52.293Z,2.00
2022-09-10T18:27:22.524Z,2.03
2022-09-10T18:29:52.256Z,1.95
2022-09-10T18:32:26.125Z,1.75
2022-09-10T18:34:57.408Z,1.63
2022-09-10T18:37:31.600Z,2.58
2022-09-10T18:40:07.800Z,2.25
2022-09-10T18:42:44.729Z,1.60
2022-09-10T18:45:17.165Z,1.83
2022-09-10T18:47:50.490Z,1.65
2022-09-10T18:50:22.659Z,1.80
2022-09-10T18:52:55.150Z,1.88
2022-09-10T18:55:24.897Z,1.55
2022-09-10T18:57:55.630Z,1.80
2022-09-10T19:00:28.366Z,2.00
2022-09-10T19:02:58.112Z,1.95
2022-09-10T19:05:28.827Z,2.00
2022-09-10T19:07:58.555Z,1.95
2022-09-10T19:10:30.651Z,1.80
2022-09-10T19:13:03.422Z,2.00
2022-09-10T19:15:33.634Z,2.30
2022-09-10T19:18:06.271Z,1.88
2022-09-10T19:20:42.175Z,2.03
2022-09-10T19:23:12.199Z,2.15
2022-09-10T19:25:41.974Z,2.08
2022-09-10T19:28:12.733Z,1.90
2022-09-10T19:30:42.421Z,2.03
2022-09-10T19:33:14.373Z,1.90
2022-09-10T19:35:47.662Z,2.17
2022-09-10T19:38:36.570Z,2.22
2022-09-10T19:41:13.935Z,2.00
2022-09-10T19:43:45.104Z,1.65
2022-09-10T19:46:16.627Z,1.65
2022-09-10T19:48:48.424Z,1.63
2022-09-10T19:51:21.923Z,1.98
2022-09-10T19:53:52.215Z,1.95
2022-09-10T19:56:25.946Z,1.85
2022-09-10T19:58:57.794Z,2.03
2022-09-10T20:01:37.296Z,2.20
2022-09-10T20:04:09.049Z,2.38
2022-09-10T20:06:39.427Z,1.80
2022-09-10T20:09:11.672Z,1.90
2022-09-10T20:11:44.433Z,1.88
2022-09-10T20:14:17.414Z,2.88
2022-09-10T20:16:47.829Z,1.98
2022-09-10T20:19:19.925Z,2.00
2022-09-10T20:21:49.755Z,2.67
2022-09-10T20:24:19.385Z,2.00
2022-09-10T20:26:50.659Z,2.15
2022-09-10T20:29:22.072Z,2.10
2022-09-10T20:31:51.779Z,2.67
2022-09-10T20:34:25.522Z,2.20
2022-09-10T20:36:55.582Z,2.00
2022-09-10T20:39:29.282Z,2.22
2022-09-10T20:41:59.431Z,3.00
2022-09-10T20:44:29.500Z,2.45
2022-09-10T20:46:59.498Z,1.77
2022-09-10T20:49:29.524Z,2.13
2022-09-10T20:52:01.012Z,2.45
2022-09-10T20:54:30.743Z,2.30
2022-09-10T20:57:00.413Z,2.13
2022-09-10T20:59:31.183Z,2.70
2022-09-10T21:02:01.258Z,1.80
2022-09-10T21:04:30.900Z,1.90
2022-09-10T21:07:00.784Z,1.95
2022-09-10T21:09:30.429Z,2.40
2022-09-10T21:12:00.205Z,2.15
2022-09-10T21:14:29.788Z,1.80
2022-09-10T21:16:59.471Z,2.28
2022-09-10T21:19:29.114Z,2.33
2022-09-10T21:21:58.753Z,2.30
2022-09-10T21:24:28.709Z,1.52
2022-09-10T21:26:58.772Z,1.98
2022-09-10T21:29:28.771Z,2.13
2022-09-10T21:31:59.190Z,1.83
2022-09-10T21:34:30.323Z,2.08
2022-09-10T21:37:00.307Z,2.10
2022-09-10T21:39:30.329Z,2.42
2022-09-10T21:42:01.405Z,2.03
2022-09-10T21:44:31.382Z,2.10
2022-09-10T21:47:01.689Z,2.00
2022-09-10T21:49:31.743Z,1.92
2022-09-10T21:52:01.704Z,2.80
2022-09-10T21:54:31.703Z,2.00
2022-09-10T21:57:01.871Z,2.10
2022-09-10T21:59:31.851Z,1.88
2022-09-10T22:02:02.315Z,2.03
2022-09-10T22:04:32.692Z,1.88
2022-09-10T22:07:04.309Z,1.75
2022-09-10T22:09:34.323Z,1.50
2022-09-10T22:12:05.274Z,1.67
2022-09-10T22:14:35.522Z,1.92
2022-09-10T22:17:07.089Z,2.13
2022-09-10T22:19:37.392Z,2.08
2022-09-10T22:22:07.937Z,1.90
2022-09-10T22:24:37.908Z,1.52
2022-09-10T22:27:08.433Z,1.77
2022-09-10T22:29:38.211Z,1.90
2022-09-10T22:32:08.051Z,1.63
2022-09-10T22:34:39.348Z,1.52
2022-09-10T22:37:09.342Z,1.70
2022-09-10T22:39:39.334Z,1.75
2022-09-10T22:42:09.424Z,1.90
2022-09-10T22:44:39.421Z,2.60
2022-09-10T22:47:09.780Z,1.65
2022-09-10T22:49:39.930Z,1.52
2022-09-10T22:52:09.955Z,1.58
2022-09-10T22:54:40.018Z,1.50
2022-09-10T22:57:10.415Z,1.65
2022-09-10T22:59:40.472Z,1.80
2022-09-10T23:02:11.423Z,1.80
2022-09-10T23:04:41.451Z,1.60
2022-09-10T23:07:12.170Z,1.63
2022-09-10T23:09:42.323Z,1.58
2022-09-10T23:12:12.379Z,1.50
2022-09-10T23:14:42.405Z,1.40
2022-09-10T23:17:12.694Z,2.00
2022-09-10T23:19:42.720Z,1.50
2022-09-10T23:22:12.992Z,1.90
2022-09-10T23:24:43.101Z,1.70
2022-09-10T23:27:13.479Z,1.80
2022-09-10T23:29:43.561Z,1.70
2022-09-10T23:32:13.231Z,1.67
2022-09-10T23:34:43.634Z,1.77
2022-09-10T23:37:13.352Z,1.90
2022-09-10T23:39:42.974Z,2.20
2022-09-10T23:42:12.643Z,1.88
2022-09-10T23:44:42.375Z,1.98
2022-09-10T23:47:12.513Z,1.85
2022-09-10T23:49:42.224Z,2.22
2022-09-10T23:52:11.983Z,2.20
2022-09-10T23:54:41.622Z,2.10
2022-09-10T23:57:11.314Z,2.35
2022-09-10T23:59:41.074Z,2.25
